sensor_id;sensor_type;location;lat;lon;timestamp;pressure;altitude;pressure_sealevel;temperature;humidity
11212;BME280;5663;50.864;12.096;2022-09-12T00:00:38;99593.38;;;15.25;75.57
11212;BME280;5663;50.864;12.096;2022-09-12T00:03:13;99584.03;;;15.21;75.57
11212;BME280;5663;50.864;12.096;2022-09-12T00:28:26;99569.28;;;14.81;73.73
11212;BME280;5663;50.864;12.096;2022-09-12T00:31:23;99573.75;;;14.78;73.61
11212;BME280;5663;50.864;12.096;2022-09-12T00:33:59;99571.31;;;14.75;73.49
11212;BME280;5663;50.864;12.096;2022-09-12T00:36:31;99574.16;;;14.72;73.31
11212;BME280;5663;50.864;12.096;2022-09-12T00:47:25;99578.16;;;14.51;73.06
11212;BME280;5663;50.864;12.096;2022-09-12T00:50:25;99570.75;;;14.43;73.06
11212;BME280;5663;50.864;12.096;2022-09-12T00:53:07;99563.13;;;14.40;73.28
11212;BME280;5663;50.864;12.096;2022-09-12T00:55:44;99568.44;;;14.39;73.04
11212;BME280;5663;50.864;12.096;2022-09-12T01:02:35;99569.41;;;14.23;73.32
11212;BME280;5663;50.864;12.096;2022-09-12T01:05:43;99564.56;;;14.17;73.52
11212;BME280;5663;50.864;12.096;2022-09-12T01:08:30;99556.00;;;14.01;73.74
11212;BME280;5663;50.864;12.096;2022-09-12T01:11:14;99565.31;;;14.05;73.55
11212;BME280;5663;50.864;12.096;2022-09-12T01:33:09;99553.84;;;13.79;74.34
11212;BME280;5663;50.864;12.096;2022-09-12T01:37:56;99557.59;;;13.75;74.48
11212;BME280;5663;50.864;12.096;2022-09-12T01:46:58;99543.66;;;13.60;74.45
11212;BME280;5663;50.864;12.096;2022-09-12T01:54:18;99561.78;;;13.63;74.15
11212;BME280;5663;50.864;12.096;2022-09-12T02:02:00;99561.22;;;13.58;74.13
11212;BME280;5663;50.864;12.096;2022-09-12T02:05:07;99554.31;;;13.57;73.83
11212;BME280;5663;50.864;12.096;2022-09-12T02:07:51;99561.41;;;13.55;73.96
11212;BME280;5663;50.864;12.096;2022-09-12T02:18:15;99556.81;;;13.44;73.82
11212;BME280;5663;50.864;12.096;2022-09-12T02:21:05;99562.13;;;13.43;73.97
11212;BME280;5663;50.864;12.096;2022-09-12T02:23:43;99555.41;;;13.39;73.94
11212;BME280;5663;50.864;12.096;2022-09-12T02:26:18;99551.31;;;13.35;74.08
11212;BME280;5663;50.864;12.096;2022-09-12T02:28:51;99553.91;;;13.35;74.25
11212;BME280;5663;50.864;12.096;2022-09-12T02:46:15;99544.03;;;13.25;74.31
11212;BME280;5663;50.864;12.096;2022-09-12T02:48:49;99543.19;;;13.25;74.86
11212;BME280;5663;50.864;12.096;2022-09-12T02:51:20;99531.03;;;13.24;75.17
11212;BME280;5663;50.864;12.096;2022-09-12T02:57:36;99533.72;;;13.22;74.72
11212;BME280;5663;50.864;12.096;2022-09-12T03:00:25;99536.19;;;13.25;74.92
11212;BME280;5663;50.864;12.096;2022-09-12T03:03:19;99538.63;;;13.28;75.07
11212;BME280;5663;50.864;12.096;2022-09-12T03:05:56;99535.06;;;13.29;74.92
11212;BME280;5663;50.864;12.096;2022-09-12T03:08:54;99536.75;;;13.30;74.96
11212;BME280;5663;50.864;12.096;2022-09-12T03:11:47;99546.25;;;13.31;74.72
11212;BME280;5663;50.864;12.096;2022-09-12T03:14:25;99544.69;;;13.29;74.37
11212;BME280;5663;50.864;12.096;2022-09-12T03:17:06;99548.88;;;13.31;74.21
11212;BME280;5663;50.864;12.096;2022-09-12T03:19:51;99529.91;;;13.28;74.26
11212;BME280;5663;50.864;12.096;2022-09-12T03:22:27;99536.09;;;13.27;74.38
11212;BME280;5663;50.864;12.096;2022-09-12T03:25:07;99511.50;;;13.15;74.37
11212;BME280;5663;50.864;12.096;2022-09-12T03:27:47;99533.41;;;13.28;74.46
11212;BME280;5663;50.864;12.096;2022-09-12T03:30:19;99529.19;;;13.26;74.55
11212;BME280;5663;50.864;12.096;2022-09-12T03:32:52;99534.47;;;13.24;74.67
11212;BME280;5663;50.864;12.096;2022-09-12T03:35:39;99529.44;;;13.21;74.70
11212;BME280;5663;50.864;12.096;2022-09-12T03:38:28;99539.03;;;13.21;74.75
11212;BME280;5663;50.864;12.096;2022-09-12T03:41:02;99540.78;;;13.20;74.79
11212;BME280;5663;50.864;12.096;2022-09-12T03:43:31;99537.34;;;13.20;74.64
11212;BME280;5663;50.864;12.096;2022-09-12T03:46:01;99547.06;;;13.18;74.88
11212;BME280;5663;50.864;12.096;2022-09-12T03:48:29;99514.09;;;13.01;74.71
11212;BME280;5663;50.864;12.096;2022-09-12T03:51:04;99541.00;;;13.17;75.07
11212;BME280;5663;50.864;12.096;2022-09-12T03:53:34;99543.59;;;13.17;74.82
11212;BME280;5663;50.864;12.096;2022-09-12T03:56:06;99543.59;;;13.17;74.76
11212;BME280;5663;50.864;12.096;2022-09-12T03:58:40;99541.00;;;13.17;74.83
11212;BME280;5663;50.864;12.096;2022-09-12T04:01:12;99545.38;;;13.17;74.77
11212;BME280;5663;50.864;12.096;2022-09-12T04:04:16;99543.00;;;13.12;74.70
11212;BME280;5663;50.864;12.096;2022-09-12T04:10:45;99544.72;;;13.13;75.24
11212;BME280;5663;50.864;12.096;2022-09-12T04:13:30;99543.78;;;13.14;75.00
11212;BME280;5663;50.864;12.096;2022-09-12T04:16:00;99546.38;;;13.14;74.77
11212;BME280;5663;50.864;12.096;2022-09-12T04:18:29;99538.56;;;13.14;74.77
11212;BME280;5663;50.864;12.096;2022-09-12T04:21:03;99542.94;;;13.14;75.04
11212;BME280;5663;50.864;12.096;2022-09-12T04:23:33;99542.19;;;13.12;74.77
11212;BME280;5663;50.864;12.096;2022-09-12T04:26:05;99542.19;;;13.12;74.81
11212;BME280;5663;50.864;12.096;2022-09-12T04:28:36;99543.88;;;13.13;75.00
11212;BME280;5663;50.864;12.096;2022-09-12T04:31:07;99521.94;;;13.01;75.02
11212;BME280;5663;50.864;12.096;2022-09-12T04:33:42;99545.63;;;13.12;75.18
11212;BME280;5663;50.864;12.096;2022-09-12T04:36:20;99542.19;;;13.12;75.17
11212;BME280;5663;50.864;12.096;2022-09-12T04:38:52;99536.13;;;13.11;74.91
11212;BME280;5663;50.864;12.096;2022-09-12T04:41:27;99545.56;;;13.14;75.15
11212;BME280;5663;50.864;12.096;2022-09-12T04:44:04;99546.38;;;13.14;75.10
11212;BME280;5663;50.864;12.096;2022-09-12T04:46:39;99541.00;;;13.17;75.36
11212;BME280;5663;50.864;12.096;2022-09-12T04:49:22;99532.22;;;13.18;75.21
11212;BME280;5663;50.864;12.096;2022-09-12T04:55:09;99535.78;;;13.17;75.15
11212;BME280;5663;50.864;12.096;2022-09-12T04:57:42;99528.66;;;13.19;75.33
11212;BME280;5663;50.864;12.096;2022-09-12T05:00:12;99538.28;;;13.19;75.33
11212;BME280;5663;50.864;12.096;2022-09-12T05:02:47;99539.22;;;13.18;75.51
11212;BME280;5663;50.864;12.096;2022-09-12T05:05:33;99540.78;;;13.20;75.23
11212;BME280;5663;50.864;12.096;2022-09-12T05:08:03;99538.28;;;13.19;75.37
11212;BME280;5663;50.864;12.096;2022-09-12T05:10:44;99550.41;;;13.20;75.75
11212;BME280;5663;50.864;12.096;2022-09-12T05:13:28;99552.19;;;13.19;75.65
11212;BME280;5663;50.864;12.096;2022-09-12T05:16:36;99551.22;;;13.20;75.37
11212;BME280;5663;50.864;12.096;2022-09-12T05:19:25;99552.94;;;13.21;75.59
11212;BME280;5663;50.864;12.096;2022-09-12T05:22:06;99546.22;;;13.17;75.46
11212;BME280;5663;50.864;12.096;2022-09-12T05:24:37;99549.56;;;13.19;75.37
11212;BME280;5663;50.864;12.096;2022-09-12T05:27:15;99558.16;;;13.21;75.38
11212;BME280;5663;50.864;12.096;2022-09-12T05:30:19;99532.94;;;13.06;75.04
11212;BME280;5663;50.864;12.096;2022-09-12T05:32:59;99559.84;;;13.22;75.00
11212;BME280;5663;50.864;12.096;2022-09-12T05:36:15;99570.16;;;13.25;75.00
11212;BME280;5663;50.864;12.096;2022-09-12T05:39:19;99568.44;;;13.24;74.71
11212;BME280;5663;50.864;12.096;2022-09-12T05:41:54;99566.59;;;13.26;74.74
11212;BME280;5663;50.864;12.096;2022-09-12T05:48:43;99576.09;;;13.27;75.08
11212;BME280;5663;50.864;12.096;2022-09-12T05:51:32;99566.91;;;13.20;75.47
11212;BME280;5663;50.864;12.096;2022-09-12T05:54:26;99573.50;;;13.27;75.57
11212;BME280;5663;50.864;12.096;2022-09-12T06:00:49;99578.53;;;13.30;75.63
11212;BME280;5663;50.864;12.096;2022-09-12T06:03:51;99579.88;;;13.38;75.72
11212;BME280;5663;50.864;12.096;2022-09-12T06:06:41;99571.25;;;13.36;75.70
11212;BME280;5663;50.864;12.096;2022-09-12T06:09:19;99582.75;;;13.47;75.90
11212;BME280;5663;50.864;12.096;2022-09-12T06:11:53;99577.25;;;13.52;76.02
11212;BME280;5663;50.864;12.096;2022-09-12T06:14:24;99580.47;;;13.57;76.13
11212;BME280;5663;50.864;12.096;2022-09-12T06:17:25;99572.63;;;13.57;76.44
11212;BME280;5663;50.864;12.096;2022-09-12T06:20:09;99580.84;;;13.65;76.68
11212;BME280;5663;50.864;12.096;2022-09-12T06:30:19;99575.41;;;13.83;76.49
11212;BME280;5663;50.864;12.096;2022-09-12T06:33:01;99573.56;;;13.85;77.04
11212;BME280;5663;50.864;12.096;2022-09-12T06:36:05;99576.25;;;13.97;77.25
11212;BME280;5663;50.864;12.096;2022-09-12T06:39:19;99581.84;;;14.05;77.55
11212;BME280;5663;50.864;12.096;2022-09-12T06:45:53;99578.38;;;14.19;77.45
11212;BME280;5663;50.864;12.096;2022-09-12T06:48:25;99572.78;;;14.25;77.96
11212;BME280;5663;50.864;12.096;2022-09-12T06:51:04;99584.53;;;14.33;78.25
11212;BME280;5663;50.864;12.096;2022-09-12T06:53:46;99583.94;;;14.42;78.57
11212;BME280;5663;50.864;12.096;2022-09-12T06:56:21;99580.88;;;14.49;78.67
11212;BME280;5663;50.864;12.096;2022-09-12T06:59:12;99582.81;;;14.60;78.65
11212;BME280;5663;50.864;12.096;2022-09-12T07:01:50;99582.09;;;14.71;78.75
11212;BME280;5663;50.864;12.096;2022-09-12T07:04:22;99581.09;;;14.73;79.03
11212;BME280;5663;50.864;12.096;2022-09-12T07:07:05;99590.00;;;14.84;79.33
11212;BME280;5663;50.864;12.096;2022-09-12T07:09:36;99584.38;;;14.90;79.38
11212;BME280;5663;50.864;12.096;2022-09-12T07:12:28;99585.66;;;14.97;79.52
11212;BME280;5663;50.864;12.096;2022-09-12T07:22:53;99596.00;;;15.25;79.02
11212;BME280;5663;50.864;12.096;2022-09-12T07:32:55;99597.47;;;15.55;78.97
11212;BME280;5663;50.864;12.096;2022-09-12T07:35:53;99580.28;;;15.64;79.37
11212;BME280;5663;50.864;12.096;2022-09-12T07:43:04;99580.09;;;15.80;79.15
11212;BME280;5663;50.864;12.096;2022-09-12T07:45:58;99568.78;;;15.79;79.54
11212;BME280;5663;50.864;12.096;2022-09-12T07:48:38;99569.31;;;15.84;79.76
11212;BME280;5663;50.864;12.096;2022-09-12T07:51:17;99582.09;;;15.89;79.85
11212;BME280;5663;50.864;12.096;2022-09-12T08:01:10;99571.69;;;16.13;79.90
11212;BME280;5663;50.864;12.096;2022-09-12T08:03:49;99582.34;;;16.22;80.33
11212;BME280;5663;50.864;12.096;2022-09-12T08:06:41;99581.47;;;16.35;81.08
11212;BME280;5663;50.864;12.096;2022-09-12T08:09:44;99577.03;;;16.48;81.60
11212;BME280;5663;50.864;12.096;2022-09-12T08:17:14;99574.22;;;16.62;80.82
11212;BME280;5663;50.864;12.096;2022-09-12T08:20:03;99568.91;;;16.64;80.95
11212;BME280;5663;50.864;12.096;2022-09-12T08:22:52;99562.06;;;16.61;80.64
11212;BME280;5663;50.864;12.096;2022-09-12T08:25:47;99566.22;;;16.77;80.59
11212;BME280;5663;50.864;12.096;2022-09-12T08:28:39;99571.03;;;16.83;80.44
11212;BME280;5663;50.864;12.096;2022-09-12T08:38:50;99576.50;;;17.04;80.08
11212;BME280;5663;50.864;12.096;2022-09-12T08:41:53;99544.09;;;16.92;80.21
11212;BME280;5663;50.864;12.096;2022-09-12T08:45:13;99577.13;;;17.18;79.79
11212;BME280;5663;50.864;12.096;2022-09-12T08:47:53;99576.69;;;17.24;79.55
11212;BME280;5663;50.864;12.096;2022-09-12T08:50:54;99577.63;;;17.35;79.38
11212;BME280;5663;50.864;12.096;2022-09-12T08:57:17;99568.63;;;17.61;79.20
11212;BME280;5663;50.864;12.096;2022-09-12T09:00:32;99576.06;;;17.79;79.24
11212;BME280;5663;50.864;12.096;2022-09-12T09:07:50;99556.44;;;18.28;77.92
11212;BME280;5663;50.864;12.096;2022-09-12T09:10:51;99570.38;;;18.51;76.42
11212;BME280;5663;50.864;12.096;2022-09-12T09:13:45;99570.19;;;18.75;74.33
11212;BME280;5663;50.864;12.096;2022-09-12T09:17:08;99555.97;;;18.98;73.14
11212;BME280;5663;50.864;12.096;2022-09-12T09:20:03;99552.00;;;19.25;72.27
11212;BME280;5663;50.864;12.096;2022-09-12T09:22:42;99545.88;;;19.45;72.32
11212;BME280;5663;50.864;12.096;2022-09-12T09:25:24;99526.38;;;19.57;70.09
11212;BME280;5663;50.864;12.096;2022-09-12T09:28:13;99546.78;;;19.86;68.19
11212;BME280;5663;50.864;12.096;2022-09-12T09:31:01;99542.16;;;20.09;69.34
11212;BME280;5663;50.864;12.096;2022-09-12T09:33:34;99535.25;;;20.27;68.10
11212;BME280;5663;50.864;12.096;2022-09-12T09:36:26;99532.50;;;20.48;67.83
11212;BME280;5663;50.864;12.096;2022-09-12T09:43:11;99531.31;;;20.91;63.13
11212;BME280;5663;50.864;12.096;2022-09-12T09:46:12;99528.63;;;21.10;63.14
11212;BME280;5663;50.864;12.096;2022-09-12T09:49:24;99527.78;;;21.39;64.28
11212;BME280;5663;50.864;12.096;2022-09-12T09:52:07;99520.47;;;21.60;63.83
11212;BME280;5663;50.864;12.096;2022-09-12T09:55:01;99527.06;;;21.84;63.86
11212;BME280;5663;50.864;12.096;2022-09-12T09:58:01;99517.75;;;22.07;63.37
11212;BME280;5663;50.864;12.096;2022-09-12T10:05:01;99514.38;;;22.05;62.46
11212;BME280;5663;50.864;12.096;2022-09-12T10:15:38;99502.59;;;22.99;59.28
11212;BME280;5663;50.864;12.096;2022-09-12T10:19:18;99491.97;;;23.25;57.27
11212;BME280;5663;50.864;12.096;2022-09-12T10:22:28;99499.56;;;23.46;55.28
11212;BME280;5663;50.864;12.096;2022-09-12T10:25:26;99490.50;;;23.56;55.12
11212;BME280;5663;50.864;12.096;2022-09-12T10:35:24;99492.16;;;23.57;54.98
11212;BME280;5663;50.864;12.096;2022-09-12T10:38:05;99491.94;;;23.77;55.75
11212;BME280;5663;50.864;12.096;2022-09-12T10:40:53;99493.44;;;23.71;52.81
11212;BME280;5663;50.864;12.096;2022-09-12T10:43:43;99491.47;;;23.47;51.95
11212;BME280;5663;50.864;12.096;2022-09-12T10:46:43;99489.38;;;23.33;53.53
11212;BME280;5663;50.864;12.096;2022-09-12T10:49:38;99485.13;;;23.40;54.51
11212;BME280;5663;50.864;12.096;2022-09-12T10:52:46;99487.28;;;23.71;54.47
11212;BME280;5663;50.864;12.096;2022-09-12T10:55:34;99476.06;;;23.93;51.37
11212;BME280;5663;50.864;12.096;2022-09-12T10:58:41;99474.78;;;24.05;50.86
11212;BME280;5663;50.864;12.096;2022-09-12T11:03:13;99479.16;;;24.31;49.80
11212;BME280;5663;50.864;12.096;2022-09-12T11:21:53;99477.22;;;24.49;49.88
11212;BME280;5663;50.864;12.096;2022-09-12T11:25:06;99468.25;;;24.50;48.45
11212;BME280;5663;50.864;12.096;2022-09-12T11:35:20;99469.03;;;25.08;46.05
11212;BME280;5663;50.864;12.096;2022-09-12T11:38:26;99465.56;;;25.07;46.64
11212;BME280;5663;50.864;12.096;2022-09-12T11:41:25;99460.59;;;25.13;46.54
11212;BME280;5663;50.864;12.096;2022-09-12T11:48:26;99453.53;;;25.36;46.55
11212;BME280;5663;50.864;12.096;2022-09-12T11:51:29;99432.97;;;25.22;46.15
11212;BME280;5663;50.864;12.096;2022-09-12T12:05:08;99452.53;;;25.37;44.49
11212;BME280;5663;50.864;12.096;2022-09-12T12:07:54;99448.56;;;25.25;44.46
11212;BME280;5663;50.864;12.096;2022-09-12T12:10:35;99441.63;;;25.16;44.37
11212;BME280;5663;50.864;12.096;2022-09-12T12:13:27;99440.94;;;25.22;45.25
11212;BME280;5663;50.864;12.096;2022-09-12T12:16:22;99440.25;;;25.28;43.68
11212;BME280;5663;50.864;12.096;2022-09-12T12:26:59;99423.31;;;24.96;45.14
11212;BME280;5663;50.864;12.096;2022-09-12T12:34:27;99415.47;;;25.27;45.38
11212;BME280;5663;50.864;12.096;2022-09-12T12:40:44;99413.97;;;25.25;43.40
11212;BME280;5663;50.864;12.096;2022-09-12T12:43:31;99422.59;;;25.35;45.38
11212;BME280;5663;50.864;12.096;2022-09-12T12:53:43;99406.22;;;25.54;43.60
11212;BME280;5663;50.864;12.096;2022-09-12T12:57:01;99392.19;;;25.61;43.39
11212;BME280;5663;50.864;12.096;2022-09-12T13:00:06;99397.78;;;25.74;43.86
11212;BME280;5663;50.864;12.096;2022-09-12T13:06:42;99393.69;;;25.94;43.62
11212;BME280;5663;50.864;12.096;2022-09-12T13:13:29;99381.38;;;25.93;43.15
11212;BME280;5663;50.864;12.096;2022-09-12T13:16:57;99380.38;;;25.94;43.75
11212;BME280;5663;50.864;12.096;2022-09-12T13:19:39;99381.38;;;25.93;43.46
11212;BME280;5663;50.864;12.096;2022-09-12T13:22:10;60577.69;;;-142.83;100.00
11212;BME280;5663;50.864;12.096;2022-09-12T13:24:49;60577.69;;;-142.83;100.00
11212;BME280;5663;50.864;12.096;2022-09-12T13:27:25;60577.69;;;-142.83;100.00
11212;BME280;5663;50.864;12.096;2022-09-12T13:30:10;60577.69;;;-142.83;100.00
11212;BME280;5663;50.864;12.096;2022-09-12T13:40:03;60577.69;;;-142.83;100.00
11212;BME280;5663;50.864;12.096;2022-09-12T13:46:54;60577.69;;;-142.83;100.00
11212;BME280;5663;50.864;12.096;2022-09-12T13:50:15;60577.69;;;-142.83;100.00
11212;BME280;5663;50.864;12.096;2022-09-12T13:52:57;60577.69;;;-142.83;100.00
11212;BME280;5663;50.864;12.096;2022-09-12T13:55:31;60577.69;;;-142.83;100.00
11212;BME280;5663;50.864;12.096;2022-09-12T13:58:02;60577.69;;;-142.83;100.00
11212;BME280;5663;50.864;12.096;2022-09-12T14:00:38;60577.69;;;-142.83;100.00
11212;BME280;5663;50.864;12.096;2022-09-12T14:03:25;60577.69;;;-142.83;100.00
11212;BME280;5663;50.864;12.096;2022-09-12T14:06:18;60577.69;;;-142.83;100.00
11212;BME280;5663;50.864;12.096;2022-09-12T14:09:06;60577.69;;;-142.83;100.00
11212;BME280;5663;50.864;12.096;2022-09-12T14:11:51;60577.69;;;-142.83;100.00
11212;BME280;5663;50.864;12.096;2022-09-12T14:14:29;60577.69;;;-142.83;100.00
11212;BME280;5663;50.864;12.096;2022-09-12T14:17:17;60577.69;;;-142.83;100.00
11212;BME280;5663;50.864;12.096;2022-09-12T14:23:17;60577.69;;;-142.83;100.00
11212;BME280;5663;50.864;12.096;2022-09-12T14:26:13;60577.69;;;-142.83;100.00
11212;BME280;5663;50.864;12.096;2022-09-12T14:32:38;60577.69;;;-142.83;100.00
11212;BME280;5663;50.864;12.096;2022-09-12T14:35:22;60577.69;;;-142.83;100.00
11212;BME280;5663;50.864;12.096;2022-09-12T14:37:56;60577.69;;;-142.83;100.00
11212;BME280;5663;50.864;12.096;2022-09-12T14:40:44;60577.69;;;-142.83;100.00
11212;BME280;5663;50.864;12.096;2022-09-12T14:44:00;60577.69;;;-142.83;100.00
11212;BME280;5663;50.864;12.096;2022-09-12T14:50:38;60577.69;;;-142.83;100.00
11212;BME280;5663;50.864;12.096;2022-09-12T14:53:55;60577.69;;;-142.83;100.00
11212;BME280;5663;50.864;12.096;2022-09-12T15:18:08;60577.69;;;-142.83;100.00
11212;BME280;5663;50.864;12.096;2022-09-12T15:21:16;60577.69;;;-142.83;100.00
11212;BME280;5663;50.864;12.096;2022-09-12T15:23:53;60577.69;;;-142.83;100.00
11212;BME280;5663;50.864;12.096;2022-09-12T15:26:28;60577.69;;;-142.83;100.00
11212;BME280;5663;50.864;12.096;2022-09-12T15:29:13;60577.69;;;-142.83;100.00
11212;BME280;5663;50.864;12.096;2022-09-12T15:31:54;60577.69;;;-142.83;100.00
11212;BME280;5663;50.864;12.096;2022-09-12T15:38:15;60577.69;;;-142.83;100.00
11212;BME280;5663;50.864;12.096;2022-09-12T15:40:59;60577.69;;;-142.83;100.00
11212;BME280;5663;50.864;12.096;2022-09-12T15:47:13;60577.69;;;-142.83;100.00
11212;BME280;5663;50.864;12.096;2022-09-12T15:49:44;60577.69;;;-142.83;100.00
11212;BME280;5663;50.864;12.096;2022-09-12T15:52:14;60577.69;;;-142.83;100.00
11212;BME280;5663;50.864;12.096;2022-09-12T15:54:53;60577.69;;;-142.83;100.00
11212;BME280;5663;50.864;12.096;2022-09-12T15:57:55;60577.69;;;-142.83;100.00
11212;BME280;5663;50.864;12.096;2022-09-12T16:01:02;60577.69;;;-142.83;100.00
11212;BME280;5663;50.864;12.096;2022-09-12T16:04:23;60577.69;;;-142.83;100.00
11212;BME280;5663;50.864;12.096;2022-09-12T16:07:19;60577.69;;;-142.83;100.00
11212;BME280;5663;50.864;12.096;2022-09-12T16:10:16;60577.69;;;-142.83;100.00
11212;BME280;5663;50.864;12.096;2022-09-12T16:12:47;60577.69;;;-142.83;100.00
11212;BME280;5663;50.864;12.096;2022-09-12T16:15:25;60577.69;;;-142.83;100.00
11212;BME280;5663;50.864;12.096;2022-09-12T16:17:56;60577.69;;;-142.83;100.00
11212;BME280;5663;50.864;12.096;2022-09-12T16:20:52;60577.69;;;-142.83;100.00
11212;BME280;5663;50.864;12.096;2022-09-12T16:23:30;60577.69;;;-142.83;100.00
11212;BME280;5663;50.864;12.096;2022-09-12T16:26:05;60577.69;;;-142.83;100.00
11212;BME280;5663;50.864;12.096;2022-09-12T16:28:35;60577.69;;;-142.83;100.00
11212;BME280;5663;50.864;12.096;2022-09-12T16:31:13;60577.69;;;-142.83;100.00
11212;BME280;5663;50.864;12.096;2022-09-12T16:33:49;60577.69;;;-142.83;100.00
11212;BME280;5663;50.864;12.096;2022-09-12T16:36:26;60577.69;;;-142.83;100.00
11212;BME280;5663;50.864;12.096;2022-09-12T16:39:05;60577.69;;;-142.83;100.00
11212;BME280;5663;50.864;12.096;2022-09-12T16:41:39;60577.69;;;-142.83;100.00
11212;BME280;5663;50.864;12.096;2022-09-12T16:44:19;60577.69;;;-142.83;100.00
11212;BME280;5663;50.864;12.096;2022-09-12T16:46:50;60577.69;;;-142.83;100.00
11212;BME280;5663;50.864;12.096;2022-09-12T16:49:24;60577.69;;;-142.83;100.00
11212;BME280;5663;50.864;12.096;2022-09-12T16:51:57;60577.69;;;-142.83;100.00
11212;BME280;5663;50.864;12.096;2022-09-12T16:54:33;60577.69;;;-142.83;100.00
11212;BME280;5663;50.864;12.096;2022-09-12T16:57:13;60577.69;;;-142.83;100.00
11212;BME280;5663;50.864;12.096;2022-09-12T16:59:59;60577.69;;;-142.83;100.00
11212;BME280;5663;50.864;12.096;2022-09-12T17:02:48;60577.69;;;-142.83;100.00
11212;BME280;5663;50.864;12.096;2022-09-12T17:05:19;60577.69;;;-142.83;100.00
11212;BME280;5663;50.864;12.096;2022-09-12T17:07:59;60577.69;;;-142.83;100.00
11212;BME280;5663;50.864;12.096;2022-09-12T17:10:42;60577.69;;;-142.83;100.00
11212;BME280;5663;50.864;12.096;2022-09-12T17:24:55;60577.69;;;-142.83;100.00
11212;BME280;5663;50.864;12.096;2022-09-12T17:27:58;60577.69;;;-142.83;100.00
11212;BME280;5663;50.864;12.096;2022-09-12T17:30:43;60577.69;;;-142.83;100.00
11212;BME280;5663;50.864;12.096;2022-09-12T17:33:20;60577.69;;;-142.83;100.00
11212;BME280;5663;50.864;12.096;2022-09-12T17:36:19;60577.69;;;-142.83;100.00
11212;BME280;5663;50.864;12.096;2022-09-12T17:39:12;60577.69;;;-142.83;100.00
11212;BME280;5663;50.864;12.096;2022-09-12T17:42:21;60577.69;;;-142.83;100.00
11212;BME280;5663;50.864;12.096;2022-09-12T17:45:07;60577.69;;;-142.83;100.00
11212;BME280;5663;50.864;12.096;2022-09-12T17:47:57;60577.69;;;-142.83;100.00
11212;BME280;5663;50.864;12.096;2022-09-12T17:50:29;60577.69;;;-142.83;100.00
11212;BME280;5663;50.864;12.096;2022-09-12T17:53:22;60577.69;;;-142.83;100.00
11212;BME280;5663;50.864;12.096;2022-09-12T17:56:41;60577.69;;;-142.83;100.00
11212;BME280;5663;50.864;12.096;2022-09-12T17:59:44;60577.69;;;-142.83;100.00
11212;BME280;5663;50.864;12.096;2022-09-12T18:02:34;60577.69;;;-142.83;100.00
11212;BME280;5663;50.864;12.096;2022-09-12T18:05:47;60577.69;;;-142.83;100.00
11212;BME280;5663;50.864;12.096;2022-09-12T18:09:05;60577.69;;;-142.83;100.00
11212;BME280;5663;50.864;12.096;2022-09-12T18:15:43;60577.69;;;-142.83;100.00
11212;BME280;5663;50.864;12.096;2022-09-12T18:23:22;60577.69;;;-142.83;100.00
11212;BME280;5663;50.864;12.096;2022-09-12T18:26:17;60577.69;;;-142.83;100.00
11212;BME280;5663;50.864;12.096;2022-09-12T18:29:49;60577.69;;;-142.83;100.00
11212;BME280;5663;50.864;12.096;2022-09-12T18:33:19;60577.69;;;-142.83;100.00
11212;BME280;5663;50.864;12.096;2022-09-12T18:36:22;60577.69;;;-142.83;100.00
11212;BME280;5663;50.864;12.096;2022-09-12T18:39:43;60577.69;;;-142.83;100.00
11212;BME280;5663;50.864;12.096;2022-09-12T18:43:24;60577.69;;;-142.83;100.00
11212;BME280;5663;50.864;12.096;2022-09-12T18:46:14;60577.69;;;-142.83;100.00
11212;BME280;5663;50.864;12.096;2022-09-12T18:49:05;60577.69;;;-142.83;100.00
11212;BME280;5663;50.864;12.096;2022-09-12T18:52:02;60577.69;;;-142.83;100.00
11212;BME280;5663;50.864;12.096;2022-09-12T18:54:56;60577.69;;;-142.83;100.00
11212;BME280;5663;50.864;12.096;2022-09-12T18:58:14;60577.69;;;-142.83;100.00
11212;BME280;5663;50.864;12.096;2022-09-12T19:01:15;60577.69;;;-142.83;100.00
11212;BME280;5663;50.864;12.096;2022-09-12T19:15:44;60577.69;;;-142.83;100.00
11212;BME280;5663;50.864;12.096;2022-09-12T19:18:28;60577.69;;;-142.83;100.00
11212;BME280;5663;50.864;12.096;2022-09-12T19:21:18;60577.69;;;-142.83;100.00
11212;BME280;5663;50.864;12.096;2022-09-12T19:24:27;60577.69;;;-142.83;100.00
11212;BME280;5663;50.864;12.096;2022-09-12T19:27:44;60577.69;;;-142.83;100.00
11212;BME280;5663;50.864;12.096;2022-09-12T19:31:11;60577.69;;;-142.83;100.00
11212;BME280;5663;50.864;12.096;2022-09-12T19:34:36;60577.69;;;-142.83;100.00
11212;BME280;5663;50.864;12.096;2022-09-12T19:48:37;60577.69;;;-142.83;100.00
11212;BME280;5663;50.864;12.096;2022-09-12T19:51:15;60577.69;;;-142.83;100.00
11212;BME280;5663;50.864;12.096;2022-09-12T19:54:20;60577.69;;;-142.83;100.00
11212;BME280;5663;50.864;12.096;2022-09-12T19:57:23;60577.69;;;-142.83;100.00
11212;BME280;5663;50.864;12.096;2022-09-12T20:00:50;60577.69;;;-142.83;100.00
11212;BME280;5663;50.864;12.096;2022-09-12T20:04:23;60577.69;;;-142.83;100.00
11212;BME280;5663;50.864;12.096;2022-09-12T20:07:27;60577.69;;;-142.83;100.00
11212;BME280;5663;50.864;12.096;2022-09-12T20:10:17;60577.69;;;-142.83;100.00
11212;BME280;5663;50.864;12.096;2022-09-12T20:16:38;60577.69;;;-142.83;100.00
11212;BME280;5663;50.864;12.096;2022-09-12T20:23:55;60577.69;;;-142.83;100.00
11212;BME280;5663;50.864;12.096;2022-09-12T20:35:11;60577.69;;;-142.83;100.00
11212;BME280;5663;50.864;12.096;2022-09-12T20:42:25;60577.69;;;-142.83;100.00
11212;BME280;5663;50.864;12.096;2022-09-12T20:45:23;60577.69;;;-142.83;100.00
11212;BME280;5663;50.864;12.096;2022-09-12T20:48:43;60577.69;;;-142.83;100.00
11212;BME280;5663;50.864;12.096;2022-09-12T20:51:22;60577.69;;;-142.83;100.00
11212;BME280;5663;50.864;12.096;2022-09-12T20:54:09;60577.69;;;-142.83;100.00
11212;BME280;5663;50.864;12.096;2022-09-12T20:56:44;60577.69;;;-142.83;100.00